createdAt,value
2018-02-04T00:00:54.459Z,78.00
2018-02-04T00:03:22.041Z,78.40
2018-02-04T00:05:49.636Z,78.00
2018-02-04T00:08:17.216Z,77.80
2018-02-04T00:10:44.794Z,78.40
2018-02-04T00:13:12.394Z,78.10
2018-02-04T00:15:40.723Z,77.50
2018-02-04T00:18:09.243Z,77.50
2018-02-04T00:20:37.617Z,76.40
2018-02-04T00:23:05.201Z,76.40
2018-02-04T00:25:33.605Z,76.00
2018-02-04T00:28:01.193Z,76.00
2018-02-04T00:30:28.795Z,75.70
2018-02-04T00:32:56.367Z,75.80
2018-02-04T00:35:23.952Z,75.40
2018-02-04T00:37:51.512Z,75.00
2018-02-04T00:40:19.859Z,75.20
2018-02-04T00:42:47.519Z,75.20
2018-02-04T00:45:15.132Z,75.20
2018-02-04T00:47:43.454Z,74.90
2018-02-04T00:50:11.114Z,74.80
2018-02-04T00:52:38.736Z,74.80
2018-02-04T00:55:07.077Z,75.70
2018-02-04T00:57:34.688Z,75.60
2018-02-04T01:00:03.069Z,75.40
2018-02-04T01:02:31.401Z,76.60
2018-02-04T01:04:58.987Z,76.60
2018-02-04T01:07:27.363Z,75.00
2018-02-04T01:09:55.000Z,75.20
2018-02-04T01:12:23.207Z,75.30
2018-02-04T01:14:50.824Z,75.10
2018-02-04T01:17:21.399Z,74.20
2018-02-04T01:19:49.465Z,74.80
2018-02-04T01:22:17.109Z,73.70
2018-02-04T01:24:46.036Z,74.20
2018-02-04T01:27:13.600Z,73.70
2018-02-04T01:29:41.190Z,73.90
2018-02-04T01:32:08.790Z,74.10
2018-02-04T01:34:36.362Z,74.30
2018-02-04T01:37:03.943Z,75.00
2018-02-04T01:39:31.522Z,73.80
2018-02-04T01:41:59.115Z,74.80
2018-02-04T01:44:26.696Z,74.60
2018-02-04T01:46:54.313Z,74.20
2018-02-04T01:49:21.892Z,74.40
2018-02-04T01:51:49.501Z,74.30
2018-02-04T01:54:17.913Z,74.20
2018-02-04T01:56:45.555Z,74.20
2018-02-04T01:59:14.041Z,74.10
2018-02-04T02:01:42.404Z,73.80
2018-02-04T02:04:10.781Z,73.60
2018-02-04T02:06:38.390Z,73.60
2018-02-04T02:09:06.008Z,73.80
2018-02-04T02:11:34.613Z,73.60
2018-02-04T02:14:02.191Z,73.30
2018-02-04T02:16:30.672Z,73.30
2018-02-04T02:18:58.273Z,74.30
2018-02-04T02:21:25.854Z,73.90
2018-02-04T02:23:53.446Z,72.50
2018-02-04T02:26:22.392Z,72.90
2018-02-04T02:28:50.830Z,71.60
2018-02-04T02:31:19.199Z,71.80
2018-02-04T02:33:46.811Z,71.70
2018-02-04T02:36:14.463Z,71.00
2018-02-04T02:38:42.059Z,71.10
2018-02-04T02:41:09.653Z,71.40
2018-02-04T02:43:37.837Z,71.70
2018-02-04T02:46:05.431Z,71.40
2018-02-04T02:48:34.541Z,71.70
2018-02-04T02:51:03.631Z,71.70
2018-02-04T02:53:31.975Z,71.20
2018-02-04T02:55:59.585Z,71.10
2018-02-04T02:58:27.960Z,71.10
2018-02-04T03:00:56.272Z,71.80
2018-02-04T03:03:23.853Z,71.10
2018-02-04T03:05:51.474Z,70.90
2018-02-04T03:08:20.797Z,70.90
2018-02-04T03:10:48.429Z,70.90
2018-02-04T03:13:16.043Z,70.80
2018-02-04T03:15:43.646Z,70.90
2018-02-04T03:18:11.268Z,71.40
2018-02-04T03:20:40.321Z,71.20
2018-02-04T03:23:07.905Z,70.70
2018-02-04T03:25:35.538Z,71.20
2018-02-04T03:28:03.145Z,70.50
2018-02-04T03:30:31.456Z,70.80
2018-02-04T03:32:59.031Z,70.70
2018-02-04T03:35:28.403Z,71.80
2018-02-04T03:37:57.597Z,71.20
2018-02-04T03:40:25.958Z,71.50
2018-02-04T03:42:53.552Z,71.40
2018-02-04T03:45:21.134Z,72.00
2018-02-04T03:47:48.704Z,74.10
2018-02-04T03:50:16.262Z,71.50
2018-02-04T03:52:43.840Z,70.70
2018-02-04T03:55:11.438Z,71.00
2018-02-04T03:57:38.989Z,70.70
2018-02-04T04:00:06.563Z,71.50
2018-02-04T04:02:34.134Z,71.20
2018-02-04T04:05:02.489Z,72.20
2018-02-04T04:07:30.063Z,71.40
2018-02-04T04:09:57.645Z,71.60
2018-02-04T04:12:25.243Z,72.60
2018-02-04T04:14:53.575Z,71.80
2018-02-04T04:17:21.141Z,71.70
2018-02-04T04:19:48.687Z,72.40
2018-02-04T04:22:16.268Z,71.40
2018-02-04T04:24:43.843Z,72.70
2018-02-04T04:27:11.416Z,72.50
2018-02-04T04:29:38.978Z,71.30
2018-02-04T04:32:07.062Z,71.60
2018-02-04T04:34:34.650Z,71.70
2018-02-04T04:37:02.998Z,71.80
2018-02-04T04:39:30.595Z,71.80
2018-02-04T04:41:58.934Z,72.10
2018-02-04T04:44:26.493Z,72.10
2018-02-04T04:46:54.518Z,72.30
2018-02-04T04:49:22.863Z,72.30
2018-02-04T04:51:50.449Z,72.30
2018-02-04T04:54:18.031Z,72.50
2018-02-04T04:56:46.381Z,72.80
2018-02-04T04:59:13.952Z,72.80
2018-02-04T05:01:41.523Z,73.50
2018-02-04T05:04:09.116Z,73.50
2018-02-04T05:06:36.686Z,74.00
2018-02-04T05:09:04.290Z,73.30
2018-02-04T05:11:31.878Z,73.70
2018-02-04T05:14:00.937Z,74.20
2018-02-04T05:16:28.550Z,74.10
2018-02-04T05:18:56.258Z,74.40
2018-02-04T05:21:23.835Z,73.90
2018-02-04T05:23:51.434Z,74.30
2018-02-04T05:26:19.033Z,73.80
2018-02-04T05:28:47.360Z,75.00
2018-02-04T05:31:15.411Z,75.00
2018-02-04T05:33:42.997Z,75.30
2018-02-04T05:36:10.563Z,74.50
2018-02-04T05:38:38.610Z,75.30
2018-02-04T05:41:06.182Z,74.80
2018-02-04T05:43:33.764Z,75.20
2018-02-04T05:46:02.234Z,75.30
2018-02-04T05:48:29.820Z,75.40
2018-02-04T05:50:57.418Z,75.80
2018-02-04T05:53:24.992Z,75.80
2018-02-04T05:55:52.542Z,75.90
2018-02-04T05:58:20.126Z,76.00
2018-02-04T06:00:48.562Z,77.50
2018-02-04T06:03:16.140Z,76.60
2018-02-04T06:05:43.687Z,76.30
2018-02-04T06:08:11.270Z,76.40
2018-02-04T06:10:38.825Z,76.20
2018-02-04T06:13:06.453Z,76.40
2018-02-04T06:15:34.123Z,77.30
2018-02-04T06:18:01.710Z,76.40
2018-02-04T06:20:29.302Z,76.50
2018-02-04T06:22:56.914Z,76.80
2018-02-04T06:25:24.512Z,76.50
2018-02-04T06:27:52.140Z,76.90
2018-02-04T06:30:20.492Z,76.50
2018-02-04T06:32:48.624Z,76.40
2018-02-04T06:35:16.188Z,77.00
2018-02-04T06:37:44.518Z,76.90
2018-02-04T06:40:13.590Z,76.90
2018-02-04T06:42:41.166Z,77.90
2018-02-04T06:45:08.762Z,77.40
2018-02-04T06:47:37.141Z,77.40
2018-02-04T06:50:05.313Z,77.40
2018-02-04T06:52:32.953Z,77.60
2018-02-04T06:55:00.555Z,77.40
2018-02-04T06:57:28.143Z,77.40
2018-02-04T06:59:55.761Z,77.70
2018-02-04T07:02:23.317Z,77.70
2018-02-04T07:04:50.943Z,78.00
2018-02-04T07:07:18.528Z,78.10
2018-02-04T07:09:46.106Z,78.20
2018-02-04T07:12:14.552Z,78.40
2018-02-04T07:14:42.194Z,78.30
2018-02-04T07:17:09.789Z,78.40
2018-02-04T07:19:37.414Z,78.20
2018-02-04T07:22:05.303Z,78.00
2018-02-04T07:24:32.888Z,78.50
2018-02-04T07:27:00.449Z,78.40
2018-02-04T07:29:28.781Z,78.80
2018-02-04T07:31:56.345Z,78.70
2018-02-04T07:34:25.415Z,79.00
2018-02-04T07:36:53.005Z,78.40
2018-02-04T07:39:21.492Z,79.00
2018-02-04T07:41:50.745Z,78.10
2018-02-04T07:44:19.085Z,78.20
2018-02-04T07:46:46.662Z,78.10
2018-02-04T07:49:14.237Z,78.30
2018-02-04T07:51:43.287Z,78.30
2018-02-04T07:54:10.862Z,78.30
2018-02-04T07:56:38.428Z,78.20
2018-02-04T07:59:05.994Z,77.80
2018-02-04T08:01:34.332Z,78.00
2018-02-04T08:04:02.693Z,77.70
2018-02-04T08:06:30.293Z,77.50
2018-02-04T08:08:57.875Z,78.30
2018-02-04T08:11:26.023Z,78.30
2018-02-04T08:13:53.641Z,79.00
2018-02-04T08:16:21.211Z,78.20
2018-02-04T08:18:48.777Z,78.90
2018-02-04T08:21:16.358Z,78.10
2018-02-04T08:23:43.917Z,78.40
2018-02-04T08:26:11.611Z,78.80
2018-02-04T08:28:39.932Z,77.50
2018-02-04T08:31:07.964Z,77.40
2018-02-04T08:33:36.304Z,78.00
2018-02-04T08:36:03.900Z,77.90
2018-02-04T08:38:31.518Z,78.30
2018-02-04T08:40:59.128Z,78.20
2018-02-04T08:43:26.732Z,77.40
2018-02-04T08:45:54.392Z,77.10
2018-02-04T08:48:22.007Z,77.10
2018-02-04T08:50:49.604Z,77.50
2018-02-04T08:53:19.383Z,76.90
2018-02-04T08:55:46.991Z,76.90
2018-02-04T08:58:15.395Z,77.60
2018-02-04T09:00:43.053Z,77.60
2018-02-04T09:03:11.281Z,78.10
2018-02-04T09:05:38.898Z,77.90
2018-02-04T09:08:06.512Z,77.70
2018-02-04T09:10:34.201Z,77.20
2018-02-04T09:13:01.822Z,77.50
2018-02-04T09:15:29.439Z,77.60
2018-02-04T09:17:57.874Z,77.30
2018-02-04T09:20:25.470Z,77.30
2018-02-04T09:22:54.501Z,77.40
2018-02-04T09:25:22.136Z,77.30
2018-02-04T09:27:50.636Z,77.00
2018-02-04T09:30:19.072Z,77.50
2018-02-04T09:32:46.660Z,77.50
2018-02-04T09:35:14.274Z,77.10
2018-02-04T09:37:42.517Z,77.70
2018-02-04T09:40:10.723Z,78.20
2018-02-04T09:42:39.651Z,78.20
2018-02-04T09:45:07.239Z,78.10
2018-02-04T09:47:34.887Z,76.70
2018-02-04T09:50:03.056Z,77.30
2018-02-04T09:52:30.608Z,76.70
2018-02-04T09:54:58.961Z,75.50
2018-02-04T09:57:27.340Z,75.60
2018-02-04T09:59:55.799Z,74.80
2018-02-04T10:02:23.436Z,75.40
2018-02-04T10:04:51.086Z,74.30
2018-02-04T10:07:18.676Z,74.20
2018-02-04T10:09:46.266Z,74.30
2018-02-04T10:12:13.848Z,75.20
2018-02-04T10:14:41.466Z,73.50
2018-02-04T10:17:09.042Z,72.70
2018-02-04T10:19:37.373Z,71.90
2018-02-04T10:22:05.739Z,71.80
2018-02-04T10:24:33.350Z,71.30
2018-02-04T10:27:00.931Z,69.80
2018-02-04T10:29:28.480Z,68.10
2018-02-04T10:31:56.068Z,68.00
2018-02-04T10:34:23.642Z,68.90
2018-02-04T10:36:51.209Z,68.50
2018-02-04T10:39:18.770Z,68.70
2018-02-04T10:41:46.356Z,68.10
2018-02-04T10:44:13.930Z,68.20
2018-02-04T10:46:41.493Z,68.50
2018-02-04T10:49:09.088Z,68.40
2018-02-04T10:51:42.280Z,69.40
2018-02-04T10:54:09.865Z,69.00
2018-02-04T10:56:37.402Z,70.00
2018-02-04T10:59:05.760Z,70.00
2018-02-04T11:01:33.980Z,70.00
2018-02-04T11:04:01.585Z,69.40
2018-02-04T11:06:29.186Z,68.90
2018-02-04T11:08:57.563Z,69.40
2018-02-04T11:11:25.209Z,69.30
2018-02-04T11:13:52.799Z,68.50
2018-02-04T11:16:20.388Z,68.50
2018-02-04T11:18:47.979Z,67.70
2018-02-04T11:21:15.536Z,67.60
2018-02-04T11:23:43.112Z,67.80
2018-02-04T11:26:10.690Z,67.60
2018-02-04T11:28:38.248Z,68.00
2018-02-04T11:31:17.636Z,68.70
2018-02-04T11:33:46.000Z,69.70
2018-02-04T11:36:14.368Z,70.00
2018-02-04T11:38:41.935Z,69.20
2018-02-04T11:41:11.360Z,69.90
2018-02-04T11:43:40.117Z,69.50
2018-02-04T11:46:07.724Z,69.50
2018-02-04T11:48:36.095Z,67.50
2018-02-04T11:51:03.690Z,67.50
2018-02-04T11:53:31.309Z,68.10
2018-02-04T11:55:58.898Z,68.60
2018-02-04T11:58:26.501Z,67.90
2018-02-04T12:00:54.179Z,67.90
2018-02-04T12:03:23.067Z,67.40
2018-02-04T12:05:51.335Z,67.80
2018-02-04T12:08:18.903Z,68.10
2018-02-04T12:10:46.465Z,68.10
2018-02-04T12:13:14.101Z,68.50
2018-02-04T12:15:43.398Z,69.40
2018-02-04T12:18:11.074Z,69.40
2018-02-04T12:20:38.654Z,68.80
2018-02-04T12:23:08.755Z,70.50
2018-02-04T12:25:37.110Z,71.50
2018-02-04T12:28:04.674Z,71.50
2018-02-04T12:30:32.286Z,71.50
2018-02-04T12:32:59.861Z,71.80
2018-02-04T12:35:27.424Z,71.60
2018-02-04T12:37:56.041Z,71.60
2018-02-04T12:40:24.325Z,71.50
2018-02-04T12:42:51.940Z,71.20
2018-02-04T12:45:20.307Z,71.40
2018-02-04T12:47:48.461Z,71.30
2018-02-04T12:50:16.019Z,70.50
2018-02-04T12:52:43.653Z,70.10
2018-02-04T12:55:11.207Z,69.40
2018-02-04T12:57:39.513Z,67.70
2018-02-04T13:00:07.130Z,67.60
2018-02-04T13:02:34.693Z,68.70
2018-02-04T13:05:02.630Z,67.50
2018-02-04T13:07:30.222Z,67.50
2018-02-04T13:09:57.826Z,68.10
2018-02-04T13:12:25.435Z,67.70
2018-02-04T13:14:53.032Z,66.60
2018-02-04T13:17:22.001Z,65.70
2018-02-04T13:19:49.584Z,63.50
2018-02-04T13:22:18.065Z,62.80
2018-02-04T13:24:45.635Z,63.20
2018-02-04T13:27:13.227Z,62.70
2018-02-04T13:29:40.865Z,62.60
2018-02-04T13:32:08.431Z,62.00
2018-02-04T13:34:36.017Z,62.10
2018-02-04T13:37:03.609Z,62.60
2018-02-04T13:39:31.210Z,63.00
2018-02-04T13:41:58.792Z,62.90
2018-02-04T13:44:26.448Z,63.10
2018-02-04T13:46:54.072Z,63.30
2018-02-04T13:49:21.656Z,64.00
2018-02-04T13:51:49.279Z,64.40
2018-02-04T13:54:17.587Z,63.50
2018-02-04T13:56:45.205Z,63.50
2018-02-04T13:59:13.554Z,64.80
2018-02-04T14:01:41.207Z,64.00
2018-02-04T14:04:08.815Z,62.70
2018-02-04T14:06:36.391Z,63.10
2018-02-04T14:09:04.770Z,63.00
2018-02-04T14:11:33.205Z,63.40
2018-02-04T14:14:00.861Z,63.00
2018-02-04T14:16:28.434Z,62.80
2018-02-04T14:18:56.009Z,62.40
2018-02-04T14:21:23.598Z,63.30
2018-02-04T14:23:51.970Z,62.90
2018-02-04T14:26:19.544Z,63.60
2018-02-04T14:28:47.100Z,64.30
2018-02-04T14:31:14.682Z,63.30
2018-02-04T14:33:42.288Z,62.80
2018-02-04T14:36:09.879Z,62.30
2018-02-04T14:38:37.457Z,62.00
2018-02-04T14:41:05.031Z,61.90
2018-02-04T14:43:32.662Z,62.40
2018-02-04T14:46:00.234Z,62.00
2018-02-04T14:48:27.821Z,63.10
2018-02-04T14:50:55.439Z,62.30
2018-02-04T14:53:23.011Z,62.50
2018-02-04T14:55:50.599Z,62.50
2018-02-04T14:58:18.170Z,62.40
2018-02-04T15:00:46.923Z,61.60
2018-02-04T15:03:15.302Z,62.50
2018-02-04T15:05:43.656Z,61.80
2018-02-04T15:08:11.256Z,61.80
2018-02-04T15:10:38.835Z,60.50
2018-02-04T15:13:06.450Z,59.90
2018-02-04T15:15:34.032Z,58.90
2018-02-04T15:18:02.381Z,61.00
2018-02-04T15:20:29.968Z,60.20
2018-02-04T15:22:57.535Z,60.90
2018-02-04T15:25:25.121Z,60.90
2018-02-04T15:27:54.817Z,61.80
2018-02-04T15:30:23.189Z,62.00
2018-02-04T15:32:50.815Z,62.00
2018-02-04T15:35:18.389Z,62.80
2018-02-04T15:37:45.967Z,63.40
2018-02-04T15:40:13.574Z,63.80
2018-02-04T15:42:41.156Z,64.10
2018-02-04T15:45:08.770Z,64.80
2018-02-04T15:47:36.370Z,64.60
2018-02-04T15:50:04.725Z,65.40
2018-02-04T15:52:32.305Z,65.40
2018-02-04T15:55:00.686Z,65.80
2018-02-04T15:57:29.136Z,67.20
2018-02-04T15:59:56.826Z,67.20
2018-02-04T16:02:24.452Z,67.60
2018-02-04T16:04:52.042Z,67.90
2018-02-04T16:07:19.609Z,69.00
2018-02-04T16:09:47.333Z,70.70
2018-02-04T16:12:14.925Z,71.10
2018-02-04T16:14:42.501Z,71.90
2018-02-04T16:17:10.103Z,72.30
2018-02-04T16:19:38.549Z,72.70
2018-02-04T16:22:06.217Z,73.00
2018-02-04T16:24:33.857Z,72.70
2018-02-04T16:27:01.457Z,72.70
2018-02-04T16:29:29.028Z,73.60
2018-02-04T16:31:56.632Z,73.00
2018-02-04T16:34:24.248Z,73.00
2018-02-04T16:36:52.384Z,72.80
2018-02-04T16:39:19.980Z,73.40
2018-02-04T16:41:47.973Z,73.00
2018-02-04T16:44:15.571Z,74.00
2018-02-04T16:46:43.925Z,75.50
2018-02-04T16:49:11.501Z,75.50
2018-02-04T16:51:41.222Z,76.30
2018-02-04T16:54:08.918Z,76.30
2018-02-04T16:56:36.521Z,77.20
2018-02-04T16:59:04.116Z,77.80
2018-02-04T17:01:32.479Z,79.30
2018-02-04T17:04:00.040Z,79.20
2018-02-04T17:06:27.695Z,80.30
2018-02-04T17:08:55.914Z,81.50
2018-02-04T17:11:24.252Z,82.80
2018-02-04T17:13:51.820Z,82.80
2018-02-04T17:16:19.450Z,83.50
2018-02-04T17:18:47.776Z,84.60
2018-02-04T17:21:15.361Z,84.60
2018-02-04T17:23:42.966Z,85.10
2018-02-04T17:26:10.548Z,85.20
2018-02-04T17:28:38.126Z,85.50
2018-02-04T17:31:05.726Z,85.70
2018-02-04T17:33:34.622Z,86.20
2018-02-04T17:36:03.107Z,86.10
2018-02-04T17:38:30.703Z,86.10
2018-02-04T17:40:58.271Z,86.80
2018-02-04T17:43:25.883Z,86.50
2018-02-04T17:45:53.468Z,86.50
2018-02-04T17:48:21.055Z,86.10
2018-02-04T17:50:49.382Z,86.20
2018-02-04T17:53:17.009Z,86.10
2018-02-04T17:55:44.582Z,86.10
2018-02-04T17:58:12.206Z,85.80
2018-02-04T18:00:40.420Z,86.10
2018-02-04T18:03:08.000Z,86.20
2018-02-04T18:05:35.592Z,86.20
2018-02-04T18:08:04.092Z,86.20
2018-02-04T18:10:31.710Z,86.10
2018-02-04T18:12:59.382Z,86.10
2018-02-04T18:15:26.979Z,86.00
2018-02-04T18:17:54.579Z,86.20
2018-02-04T18:20:22.175Z,86.20
2018-02-04T18:22:50.525Z,86.50
2018-02-04T18:25:18.112Z,86.70
2018-02-04T18:27:46.272Z,86.50
2018-02-04T18:30:14.496Z,86.30
2018-02-04T18:32:42.056Z,86.40
2018-02-04T18:35:09.631Z,86.50
2018-02-04T18:37:37.237Z,86.60
2018-02-04T18:40:05.604Z,86.60
2018-02-04T18:42:33.197Z,86.50
2018-02-04T18:45:01.594Z,86.20
2018-02-04T18:47:29.934Z,86.80
2018-02-04T18:49:57.668Z,86.80
2018-02-04T18:52:25.288Z,86.60
2018-02-04T18:54:52.873Z,87.10
2018-02-04T18:57:20.482Z,87.10
2018-02-04T18:59:48.067Z,87.30
2018-02-04T19:02:15.732Z,87.40
2018-02-04T19:04:43.351Z,87.10
2018-02-04T19:07:10.917Z,87.50
2018-02-04T19:09:39.371Z,87.50
2018-02-04T19:12:07.001Z,87.40
2018-02-04T19:14:34.575Z,87.40
2018-02-04T19:17:02.148Z,87.60
2018-02-04T19:19:30.577Z,88.10
2018-02-04T19:21:58.228Z,87.30
2018-02-04T19:24:26.551Z,87.60
2018-02-04T19:26:54.143Z,87.60
2018-02-04T19:29:21.760Z,87.30
2018-02-04T19:31:49.338Z,87.30
2018-02-04T19:34:16.992Z,87.20
2018-02-04T19:36:44.618Z,87.10
2018-02-04T19:39:12.216Z,87.20
2018-02-04T19:41:39.837Z,87.40
2018-02-04T19:44:07.416Z,87.50
2018-02-04T19:46:35.017Z,87.30
2018-02-04T19:49:02.663Z,87.40
2018-02-04T19:51:30.299Z,87.30
2018-02-04T19:53:58.131Z,87.40
2018-02-04T19:56:25.782Z,87.90
2018-02-04T19:58:53.425Z,87.20
2018-02-04T20:01:21.917Z,87.20
2018-02-04T20:03:50.821Z,87.40
2018-02-04T20:06:19.249Z,87.50
2018-02-04T20:08:46.845Z,87.40
2018-02-04T20:11:15.675Z,87.50
2018-02-04T20:13:43.320Z,87.90
2018-02-04T20:16:11.750Z,87.50
2018-02-04T20:18:40.552Z,87.50
2018-02-04T20:21:08.160Z,87.50
2018-02-04T20:23:35.812Z,87.40
2018-02-04T20:26:03.466Z,87.70
2018-02-04T20:28:31.075Z,87.20
2018-02-04T20:30:58.721Z,87.10
2018-02-04T20:33:26.407Z,87.90
2018-02-04T20:35:54.039Z,86.60
2018-02-04T20:38:21.649Z,86.60
2018-02-04T20:40:49.329Z,86.50
2018-02-04T20:43:16.975Z,86.40
2018-02-04T20:45:45.369Z,86.40
2018-02-04T20:48:13.012Z,86.30
2018-02-04T20:50:41.368Z,86.70
2018-02-04T20:53:08.940Z,86.60
2018-02-04T20:55:36.560Z,85.70
2018-02-04T20:58:04.194Z,86.30
2018-02-04T21:00:32.526Z,85.60
2018-02-04T21:03:00.871Z,85.60
2018-02-04T21:05:29.349Z,85.80
2018-02-04T21:07:57.765Z,85.60
2018-02-04T21:10:25.372Z,85.50
2018-02-04T21:12:52.939Z,86.00
2018-02-04T21:15:21.681Z,85.70
2018-02-04T21:17:49.263Z,85.40
2018-02-04T21:20:16.836Z,85.90
2018-02-04T21:22:45.970Z,86.20
2018-02-04T21:25:15.270Z,85.10
2018-02-04T21:27:43.628Z,85.30
2018-02-04T21:30:12.227Z,85.30
2018-02-04T21:32:39.821Z,85.30
2018-02-04T21:35:08.194Z,85.40
2018-02-04T21:37:36.548Z,85.50
2018-02-04T21:40:04.136Z,85.50
2018-02-04T21:42:31.714Z,86.00
2018-02-04T21:45:00.079Z,86.20
2018-02-04T21:47:27.660Z,86.30
2018-02-04T21:49:56.123Z,87.40
2018-02-04T21:52:23.759Z,87.40
2018-02-04T21:54:51.629Z,87.40
2018-02-04T21:57:21.783Z,88.00
2018-02-04T21:59:49.333Z,87.90
2018-02-04T22:02:16.887Z,88.40
2018-02-04T22:04:45.357Z,87.90
2018-02-04T22:07:13.736Z,88.50
2018-02-04T22:09:41.304Z,88.40
2018-02-04T22:12:08.900Z,88.50
2018-02-04T22:14:36.622Z,88.70
2018-02-04T22:17:04.176Z,89.00
2018-02-04T22:19:31.766Z,88.70
2018-02-04T22:21:59.362Z,88.20
2018-02-04T22:24:27.070Z,88.40
2018-02-04T22:26:54.799Z,88.20
2018-02-04T22:29:22.367Z,88.30
2018-02-04T22:31:49.922Z,88.30
2018-02-04T22:34:17.530Z,88.50
2018-02-04T22:36:45.873Z,88.80
2018-02-04T22:39:13.433Z,88.80
2018-02-04T22:41:41.015Z,88.80
2018-02-04T22:44:08.598Z,88.80
2018-02-04T22:46:36.947Z,88.30
2018-02-04T22:49:05.911Z,88.30
2018-02-04T22:51:33.471Z,88.60
2018-02-04T22:54:01.036Z,88.70
2018-02-04T22:56:29.509Z,88.10
2018-02-04T22:58:57.057Z,88.30
2018-02-04T23:01:25.378Z,88.10
2018-02-04T23:03:52.955Z,88.10
2018-02-04T23:06:21.375Z,88.30
2018-02-04T23:08:48.926Z,88.00
2018-02-04T23:11:16.532Z,88.30
2018-02-04T23:13:44.919Z,88.40
2018-02-04T23:16:12.445Z,88.40
2018-02-04T23:18:40.031Z,88.60
2018-02-04T23:21:08.402Z,89.20
2018-02-04T23:23:35.981Z,88.60
2018-02-04T23:26:04.359Z,88.60
2018-02-04T23:28:32.709Z,88.10
2018-02-04T23:31:00.300Z,88.10
2018-02-04T23:33:28.647Z,88.30
2018-02-04T23:35:56.209Z,88.30
2018-02-04T23:38:24.605Z,87.90
2018-02-04T23:40:52.187Z,88.10
2018-02-04T23:43:19.768Z,88.50
2018-02-04T23:45:47.350Z,88.00
2018-02-04T23:48:14.924Z,87.70
2018-02-04T23:50:42.496Z,87.70
2018-02-04T23:53:10.076Z,88.00
2018-02-04T23:55:37.693Z,87.90
2018-02-04T23:58:07.470Z,88.00
